createdAt,value
2017-02-18T00:01:09.482Z,47.73
2017-02-18T00:02:19.669Z,47.71
2017-02-18T00:03:30.387Z,47.71
2017-02-18T00:04:40.587Z,47.32
2017-02-18T00:05:50.777Z,47.73
2017-02-18T00:07:00.968Z,47.8
2017-02-18T00:08:10.305Z,47.42
2017-02-18T00:09:19.679Z,47.42
2017-02-18T00:10:29.410Z,47.61
2017-02-18T00:11:38.744Z,47.61
2017-02-18T00:12:48.499Z,47.32
2017-02-18T00:13:57.822Z,47.32
2017-02-18T00:15:08.057Z,47.61
2017-02-18T00:16:17.805Z,47.42
2017-02-18T00:17:27.126Z,47.42
2017-02-18T00:18:36.880Z,47.61
2017-02-18T00:19:46.209Z,47.52
2017-02-18T00:20:55.616Z,47.61
2017-02-18T00:22:04.920Z,47.32
2017-02-18T00:23:14.683Z,47.52
2017-02-18T00:24:25.314Z,47.42
2017-02-18T00:25:35.055Z,47.52
2017-02-18T00:26:45.728Z,47.61
2017-02-18T00:27:55.916Z,47.61
2017-02-18T00:29:06.094Z,47.61
2017-02-18T00:30:16.276Z,47.71
2017-02-18T00:31:26.021Z,47.42
2017-02-18T00:32:36.691Z,47.61
2017-02-18T00:33:47.306Z,47.42
2017-02-18T00:34:57.512Z,47.61
2017-02-18T00:36:07.693Z,47.61
2017-02-18T00:37:17.433Z,47.52
2017-02-18T00:38:28.119Z,47.44
2017-02-18T00:39:37.881Z,47.42
2017-02-18T00:40:47.627Z,47.42
2017-02-18T00:41:56.934Z,47.42
2017-02-18T00:43:06.241Z,47.52
2017-02-18T00:44:16.509Z,47.42
2017-02-18T00:45:25.820Z,47.42
2017-02-18T00:46:35.583Z,47.61
2017-02-18T00:47:45.772Z,47.61
2017-02-18T00:48:55.542Z,47.52
2017-02-18T00:50:05.347Z,47.61
2017-02-18T00:51:14.659Z,47.32
2017-02-18T00:52:24.394Z,47.42
2017-02-18T00:53:34.139Z,47.61
2017-02-18T00:54:44.323Z,47.61
2017-02-18T00:55:54.562Z,47.52
2017-02-18T00:57:04.759Z,47.61
2017-02-18T00:58:14.518Z,47.42
2017-02-18T00:59:24.737Z,47.42
2017-02-18T01:00:34.049Z,47.52
2017-02-18T01:01:44.283Z,47.52
2017-02-18T01:02:54.903Z,47.52
2017-02-18T01:04:05.520Z,47.32
2017-02-18T01:05:15.286Z,47.52
2017-02-18T01:06:25.460Z,47.52
2017-02-18T01:07:34.839Z,47.52
2017-02-18T01:08:45.023Z,47.42
2017-02-18T01:09:55.200Z,47.52
2017-02-18T01:11:04.961Z,47.23
2017-02-18T01:12:15.582Z,47.52
2017-02-18T01:13:24.947Z,47.23
2017-02-18T01:14:35.579Z,47.23
2017-02-18T01:15:45.757Z,47.61
2017-02-18T01:16:55.066Z,47.52
2017-02-18T01:18:05.687Z,47.42
2017-02-18T01:19:16.379Z,47.52
2017-02-18T01:20:26.583Z,47.89
2017-02-18T01:21:36.329Z,47.52
2017-02-18T01:22:46.069Z,47.61
2017-02-18T01:23:56.256Z,47.52
2017-02-18T01:25:06.057Z,47.52
2017-02-18T01:26:15.816Z,47.23
2017-02-18T01:27:25.991Z,47.61
2017-02-18T01:28:36.603Z,47.32
2017-02-18T01:29:46.802Z,47.8
2017-02-18T01:30:56.603Z,47.23
2017-02-18T01:32:06.387Z,47.61
2017-02-18T01:33:16.573Z,47.42
2017-02-18T01:34:26.748Z,47.89
2017-02-18T01:35:36.929Z,47.32
2017-02-18T01:36:47.165Z,47.71
2017-02-18T01:37:57.784Z,47.99
2017-02-18T01:39:07.524Z,47.8
2017-02-18T01:40:18.182Z,47.42
2017-02-18T01:41:27.922Z,47.32
2017-02-18T01:42:38.618Z,47.52
2017-02-18T01:43:49.242Z,47.71
2017-02-18T01:44:58.585Z,47.52
2017-02-18T01:46:08.822Z,47.89
2017-02-18T01:47:19.000Z,47.8
2017-02-18T01:48:29.242Z,47.71
2017-02-18T01:49:38.550Z,47.42
2017-02-18T01:50:48.733Z,47.71
2017-02-18T01:51:58.922Z,47.42
2017-02-18T01:53:08.259Z,47.42
2017-02-18T01:54:18.044Z,47.52
2017-02-18T01:55:27.360Z,47.42
2017-02-18T01:56:37.974Z,47.52
2017-02-18T01:57:48.152Z,47.8
2017-02-18T01:58:57.889Z,47.52
2017-02-18T02:00:07.244Z,47.42
2017-02-18T02:01:16.563Z,47.42
2017-02-18T02:02:26.333Z,47.42
2017-02-18T02:03:36.110Z,47.99
2017-02-18T02:04:45.894Z,47.32
2017-02-18T02:05:55.702Z,47.42
2017-02-18T02:07:05.445Z,47.42
2017-02-18T02:08:15.195Z,47.71
2017-02-18T02:09:24.503Z,47.89
2017-02-18T02:10:33.828Z,47.8
2017-02-18T02:11:43.189Z,47.89
2017-02-18T02:12:53.387Z,47.42
2017-02-18T02:14:03.143Z,47.42
2017-02-18T02:15:13.777Z,47.89
2017-02-18T02:16:23.093Z,47.32
2017-02-18T02:17:33.335Z,47.32
2017-02-18T02:18:43.075Z,47.52
2017-02-18T02:19:53.258Z,47.42
2017-02-18T02:21:03.456Z,48.09
2017-02-18T02:22:13.211Z,47.89
2017-02-18T02:23:23.453Z,47.89
2017-02-18T02:24:32.766Z,47.89
2017-02-18T02:25:43.396Z,47.32
2017-02-18T02:26:52.701Z,47.52
2017-02-18T02:28:02.445Z,47.71
2017-02-18T02:29:12.894Z,47.61
2017-02-18T02:30:22.229Z,47.32
2017-02-18T02:31:31.534Z,47.89
2017-02-18T02:32:41.273Z,47.23
2017-02-18T02:33:51.885Z,47.71
2017-02-18T02:35:02.566Z,47.89
2017-02-18T02:36:11.909Z,48.09
2017-02-18T02:37:21.662Z,47.89
2017-02-18T02:38:31.853Z,47.89
2017-02-18T02:39:41.622Z,47.42
2017-02-18T02:40:51.447Z,47.89
2017-02-18T02:42:01.201Z,47.89
2017-02-18T02:43:10.520Z,47.89
2017-02-18T02:44:20.735Z,47.89
2017-02-18T02:45:30.524Z,47.71
2017-02-18T02:46:39.915Z,47.99
2017-02-18T02:47:49.659Z,47.89
2017-02-18T02:48:59.411Z,47.61
2017-02-18T02:50:09.180Z,47.42
2017-02-18T02:51:19.814Z,47.52
2017-02-18T02:52:30.263Z,47.32
2017-02-18T02:53:40.019Z,47.42
2017-02-18T02:54:49.769Z,47.8
2017-02-18T02:55:59.557Z,47.52
2017-02-18T02:57:09.319Z,47.99
2017-02-18T02:58:19.729Z,47.89
2017-02-18T02:59:29.950Z,47.89
2017-02-18T03:00:39.260Z,47.99
2017-02-18T03:01:49.015Z,47.89
2017-02-18T03:02:58.768Z,47.71
2017-02-18T03:04:08.579Z,47.42
2017-02-18T03:05:18.351Z,48.09
2017-02-18T03:06:28.538Z,47.71
2017-02-18T03:07:37.881Z,47.42
2017-02-18T03:08:47.219Z,47.42
2017-02-18T03:09:57.481Z,47.52
2017-02-18T03:11:06.802Z,47.52
2017-02-18T03:12:16.578Z,47.71
2017-02-18T03:13:26.341Z,47.99
2017-02-18T03:14:36.093Z,47.99
2017-02-18T03:15:45.906Z,47.52
2017-02-18T03:16:55.704Z,48.09
2017-02-18T03:18:05.081Z,47.52
2017-02-18T03:19:14.834Z,47.99
2017-02-18T03:20:25.064Z,47.89
2017-02-18T03:21:35.315Z,47.8
2017-02-18T03:22:44.626Z,48.18
2017-02-18T03:23:54.374Z,47.99
2017-02-18T03:25:03.686Z,47.61
2017-02-18T03:26:13.881Z,47.42
2017-02-18T03:27:23.254Z,48.09
2017-02-18T03:28:33.535Z,47.89
2017-02-18T03:29:43.772Z,47.52
2017-02-18T03:30:53.970Z,47.61
2017-02-18T03:32:04.163Z,47.52
2017-02-18T03:33:13.972Z,47.42
2017-02-18T03:34:23.288Z,47.89
2017-02-18T03:35:33.473Z,47.52
2017-02-18T03:36:44.179Z,47.61
2017-02-18T03:37:53.937Z,47.99
2017-02-18T03:39:04.330Z,47.99
2017-02-18T03:40:13.692Z,47.99
2017-02-18T03:41:23.444Z,48.09
2017-02-18T03:42:33.224Z,47.61
2017-02-18T03:43:42.967Z,47.99
2017-02-18T03:44:52.772Z,47.42
2017-02-18T03:46:02.086Z,47.89
2017-02-18T03:47:11.842Z,47.61
2017-02-18T03:48:21.610Z,47.99
2017-02-18T03:49:31.425Z,47.99
2017-02-18T03:50:41.269Z,47.8
2017-02-18T03:51:50.585Z,47.8
2017-02-18T03:53:00.792Z,47.42
2017-02-18T03:54:10.115Z,47.99
2017-02-18T03:55:20.301Z,47.89
2017-02-18T03:56:31.008Z,47.89
2017-02-18T03:57:41.205Z,47.99
2017-02-18T03:58:50.974Z,48.09
2017-02-18T04:00:00.295Z,47.8
2017-02-18T04:01:09.610Z,47.99
2017-02-18T04:02:19.435Z,47.89
2017-02-18T04:03:28.743Z,47.71
2017-02-18T04:04:38.504Z,47.99
2017-02-18T04:05:48.700Z,48.09
2017-02-18T04:06:58.903Z,48.09
2017-02-18T04:08:08.691Z,47.71
2017-02-18T04:09:18.909Z,47.99
2017-02-18T04:10:28.226Z,47.99
2017-02-18T04:11:37.983Z,47.89
2017-02-18T04:12:48.603Z,48.28
2017-02-18T04:13:58.409Z,48.28
2017-02-18T04:15:08.174Z,48.38
2017-02-18T04:16:17.485Z,48.09
2017-02-18T04:17:27.252Z,48.09
2017-02-18T04:18:36.997Z,47.89
2017-02-18T04:19:47.235Z,48.38
2017-02-18T04:20:57.428Z,47.71
2017-02-18T04:22:07.628Z,48.38
2017-02-18T04:23:17.843Z,48.28
2017-02-18T04:24:27.192Z,48.38
2017-02-18T04:25:37.425Z,47.99
2017-02-18T04:26:47.171Z,48.38
2017-02-18T04:27:56.928Z,48.38
2017-02-18T04:29:06.716Z,47.71
2017-02-18T04:30:16.020Z,48.09
2017-02-18T04:31:25.909Z,48.38
2017-02-18T04:32:35.660Z,48.38
2017-02-18T04:33:45.894Z,48.09
2017-02-18T04:34:55.251Z,48.38
2017-02-18T04:36:04.568Z,47.89
2017-02-18T04:37:13.949Z,48.38
2017-02-18T04:38:23.705Z,47.89
2017-02-18T04:39:33.468Z,48.47
2017-02-18T04:40:43.735Z,48.38
2017-02-18T04:41:54.402Z,47.99
2017-02-18T04:43:05.522Z,48.09
2017-02-18T04:44:15.774Z,48.09
2017-02-18T04:45:26.412Z,47.99
2017-02-18T04:46:36.621Z,48.18
2017-02-18T04:47:47.696Z,47.89
2017-02-18T04:48:57.929Z,48.09
2017-02-18T04:50:07.247Z,47.89
2017-02-18T04:51:17.010Z,48.09
2017-02-18T04:52:27.205Z,48.09
2017-02-18T04:53:36.958Z,47.89
2017-02-18T04:54:47.203Z,48.18
2017-02-18T04:55:56.963Z,48.18
2017-02-18T04:57:07.593Z,48.18
2017-02-18T04:58:16.902Z,48.28
2017-02-18T04:59:26.226Z,48.18
2017-02-18T05:00:36.473Z,48.28
2017-02-18T05:01:45.802Z,48.18
2017-02-18T05:02:55.551Z,48.09
2017-02-18T05:04:04.864Z,48.18
2017-02-18T05:05:14.618Z,48.28
2017-02-18T05:06:25.759Z,48.18
2017-02-18T05:07:35.960Z,47.99
2017-02-18T05:08:46.144Z,48.28
2017-02-18T05:09:56.319Z,48.28
2017-02-18T05:11:05.631Z,48.18
2017-02-18T05:12:15.457Z,48.09
2017-02-18T05:13:25.245Z,48.18
2017-02-18T05:14:34.568Z,48.09
2017-02-18T05:15:44.352Z,47.99
2017-02-18T05:16:54.093Z,47.99
2017-02-18T05:18:04.339Z,48.28
2017-02-18T05:19:14.948Z,47.99
2017-02-18T05:20:25.157Z,47.99
2017-02-18T05:21:34.929Z,48.09
2017-02-18T05:22:45.546Z,48.18
2017-02-18T05:23:55.384Z,48.18
2017-02-18T05:25:05.148Z,48.18
2017-02-18T05:26:14.898Z,48.18
2017-02-18T05:27:24.204Z,48.18
2017-02-18T05:28:33.528Z,48.28
2017-02-18T05:29:44.197Z,48.28
2017-02-18T05:30:54.420Z,48.28
2017-02-18T05:32:04.628Z,48.28
2017-02-18T05:33:13.958Z,48.18
2017-02-18T05:34:23.302Z,47.99
2017-02-18T05:35:32.670Z,48.28
2017-02-18T05:36:42.426Z,47.99
2017-02-18T05:37:52.171Z,48.28
2017-02-18T05:39:01.492Z,48.09
2017-02-18T05:40:11.671Z,48.18
2017-02-18T05:41:22.798Z,48.18
2017-02-18T05:42:32.112Z,48.18
2017-02-18T05:43:41.456Z,48.18
2017-02-18T05:44:51.226Z,48.18
2017-02-18T05:46:00.979Z,48.28
2017-02-18T05:47:10.816Z,48.18
2017-02-18T05:48:20.620Z,48.09
2017-02-18T05:49:29.917Z,48.18
2017-02-18T05:50:40.544Z,48.28
2017-02-18T05:51:50.309Z,48.18
2017-02-18T05:53:00.133Z,48.18
2017-02-18T05:54:10.320Z,48.18
2017-02-18T05:55:20.972Z,48.18
2017-02-18T05:56:30.726Z,48.18
2017-02-18T05:57:40.927Z,48.18
2017-02-18T05:58:51.616Z,48.18
2017-02-18T06:00:01.373Z,48.18
2017-02-18T06:01:11.119Z,48.18
2017-02-18T06:02:20.439Z,48.18
2017-02-18T06:03:30.190Z,47.99
2017-02-18T06:04:39.998Z,48.09
2017-02-18T06:05:49.770Z,48.18
2017-02-18T06:06:59.958Z,48.18
2017-02-18T06:08:10.149Z,48.18
2017-02-18T06:09:20.349Z,48.28
2017-02-18T06:10:30.611Z,48.28
2017-02-18T06:11:40.788Z,48.18
2017-02-18T06:12:50.982Z,48.28
2017-02-18T06:14:00.277Z,48.18
2017-02-18T06:15:10.469Z,47.99
2017-02-18T06:16:20.725Z,48.28
2017-02-18T06:17:30.499Z,47.99
2017-02-18T06:18:41.130Z,48.18
2017-02-18T06:19:51.340Z,48.18
2017-02-18T06:21:01.525Z,48.09
2017-02-18T06:22:12.218Z,48.18
2017-02-18T06:23:21.545Z,48.18
2017-02-18T06:24:31.286Z,47.99
2017-02-18T06:25:41.035Z,47.99
2017-02-18T06:26:51.235Z,48.18
2017-02-18T06:28:01.906Z,48.18
2017-02-18T06:29:11.235Z,48.28
2017-02-18T06:30:20.996Z,48.38
2017-02-18T06:31:30.321Z,48.09
2017-02-18T06:32:40.102Z,48.18
2017-02-18T06:33:50.069Z,47.99
2017-02-18T06:34:59.828Z,48.28
2017-02-18T06:36:10.034Z,48.28
2017-02-18T06:37:19.383Z,47.99
2017-02-18T06:38:29.130Z,48.28
2017-02-18T06:39:38.955Z,48.28
2017-02-18T06:40:48.710Z,48.28
2017-02-18T06:41:58.038Z,48.18
2017-02-18T06:43:07.804Z,48.28
2017-02-18T06:44:17.133Z,48.28
2017-02-18T06:45:26.942Z,48.28
2017-02-18T06:46:37.145Z,48.18
2017-02-18T06:47:47.322Z,48.38
2017-02-18T06:48:57.082Z,48.28
2017-02-18T06:50:06.866Z,48.18
2017-02-18T06:51:17.117Z,47.8
2017-02-18T06:52:26.432Z,48.09
2017-02-18T06:53:36.627Z,47.71
2017-02-18T06:54:47.701Z,48.09
2017-02-18T06:55:57.070Z,48.09
2017-02-18T06:57:07.311Z,48.38
2017-02-18T06:58:17.052Z,47.89
2017-02-18T06:59:26.808Z,47.89
2017-02-18T07:00:36.577Z,47.89
2017-02-18T07:01:47.211Z,47.52
2017-02-18T07:02:57.877Z,47.52
2017-02-18T07:04:07.661Z,47.52
2017-02-18T07:05:17.426Z,47.61
2017-02-18T07:06:27.660Z,47.71
2017-02-18T07:07:38.333Z,47.32
2017-02-18T07:08:48.325Z,47.8
2017-02-18T07:09:58.092Z,47.52
2017-02-18T07:11:08.280Z,47.89
2017-02-18T07:12:18.035Z,47.71
2017-02-18T07:13:28.260Z,47.42
2017-02-18T07:14:37.621Z,47.42
2017-02-18T07:15:47.822Z,47.42
2017-02-18T07:16:57.147Z,47.42
2017-02-18T07:18:06.895Z,47.52
2017-02-18T07:19:17.089Z,47.42
2017-02-18T07:20:26.895Z,47.32
2017-02-18T07:21:36.653Z,47.89
2017-02-18T07:22:47.297Z,47.61
2017-02-18T07:23:57.062Z,47.71
2017-02-18T07:25:06.845Z,47.89
2017-02-18T07:26:17.552Z,47.61
2017-02-18T07:27:27.329Z,47.32
2017-02-18T07:28:37.069Z,47.52
2017-02-18T07:29:46.827Z,47.52
2017-02-18T07:30:56.597Z,47.42
2017-02-18T07:32:06.010Z,47.52
2017-02-18T07:33:16.235Z,47.42
2017-02-18T07:34:25.988Z,47.61
2017-02-18T07:35:36.178Z,47.61
2017-02-18T07:36:45.945Z,47.42
2017-02-18T07:37:55.747Z,47.61
2017-02-18T07:39:05.945Z,47.61
2017-02-18T07:40:15.721Z,47.32
2017-02-18T07:41:26.342Z,47.52
2017-02-18T07:42:36.109Z,47.71
2017-02-18T07:43:45.474Z,47.71
2017-02-18T07:44:55.225Z,47.52
2017-02-18T07:46:05.428Z,47.32
2017-02-18T07:47:15.169Z,47.52
2017-02-18T07:48:25.355Z,47.23
2017-02-18T07:49:35.603Z,47.32
2017-02-18T07:50:45.353Z,47.52
2017-02-18T07:51:55.541Z,47.32
2017-02-18T07:53:05.763Z,47.23
2017-02-18T07:54:15.117Z,47.52
2017-02-18T07:55:24.546Z,47.42
2017-02-18T07:56:34.303Z,47.42
2017-02-18T07:57:44.139Z,47.32
2017-02-18T07:58:54.353Z,47.03
2017-02-18T08:00:04.596Z,47.13
2017-02-18T08:01:14.441Z,47.03
2017-02-18T08:02:24.220Z,47.13
2017-02-18T08:03:33.534Z,47.23
2017-02-18T08:04:43.311Z,47.32
2017-02-18T08:05:52.625Z,47.32
2017-02-18T08:07:01.994Z,47.13
2017-02-18T08:08:11.318Z,46.94
2017-02-18T08:09:21.080Z,47.32
2017-02-18T08:10:31.255Z,47.42
2017-02-18T08:11:41.462Z,47.23
2017-02-18T08:12:51.266Z,47.42
2017-02-18T08:14:01.449Z,47.23
2017-02-18T08:15:11.222Z,47.32
2017-02-18T08:16:21.451Z,47.23
2017-02-18T08:17:31.644Z,47.03
2017-02-18T08:18:41.481Z,47.03
2017-02-18T08:19:50.803Z,47.03
2017-02-18T08:21:00.114Z,46.84
2017-02-18T08:22:10.737Z,47.23
2017-02-18T08:23:20.910Z,47.8
2017-02-18T08:24:30.289Z,47.03
2017-02-18T08:25:40.051Z,47.23
2017-02-18T08:26:49.353Z,47.61
2017-02-18T08:27:58.673Z,47.03
2017-02-18T08:29:08.872Z,47.61
2017-02-18T08:30:18.685Z,47.23
2017-02-18T08:31:29.317Z,47.23
2017-02-18T08:32:38.650Z,47.23
2017-02-18T08:33:49.723Z,47.13
2017-02-18T08:35:00.362Z,47.03
2017-02-18T08:36:10.599Z,47.13
2017-02-18T08:37:19.907Z,47.03
2017-02-18T08:38:30.086Z,47.13
2017-02-18T08:39:39.838Z,47.89
2017-02-18T08:40:49.591Z,46.94
2017-02-18T08:41:58.961Z,46.84
2017-02-18T08:43:08.718Z,46.75
2017-02-18T08:44:18.467Z,47.03
2017-02-18T08:45:27.800Z,47.03
2017-02-18T08:46:37.573Z,46.84
2017-02-18T08:47:48.294Z,47.13
2017-02-18T08:48:58.060Z,47.13
2017-02-18T08:50:08.246Z,46.94
2017-02-18T08:51:17.993Z,47.23
2017-02-18T08:52:28.179Z,46.46
2017-02-18T08:53:37.530Z,47.03
2017-02-18T08:54:48.157Z,47.03
2017-02-18T08:55:57.503Z,47.03
2017-02-18T08:57:06.812Z,47.13
2017-02-18T08:58:16.124Z,47.03
2017-02-18T08:59:25.526Z,46.87
2017-02-18T09:00:35.279Z,46.84
2017-02-18T09:01:44.623Z,46.84
2017-02-18T09:02:54.810Z,46.94
2017-02-18T09:04:05.466Z,46.94
2017-02-18T09:05:15.272Z,46.84
2017-02-18T09:06:25.030Z,46.94
2017-02-18T09:07:34.799Z,46.84
2017-02-18T09:08:44.596Z,46.58
2017-02-18T09:09:54.347Z,46.84
2017-02-18T09:11:04.594Z,46.94
2017-02-18T09:12:13.898Z,46.75
2017-02-18T09:13:23.677Z,46.37
2017-02-18T09:14:33.444Z,46.84
2017-02-18T09:15:44.072Z,46.94
2017-02-18T09:16:53.877Z,46.56
2017-02-18T09:18:04.092Z,46.77
2017-02-18T09:19:13.853Z,46.77
2017-02-18T09:20:24.926Z,46.87
2017-02-18T09:21:35.584Z,46.48
2017-02-18T09:22:45.396Z,46.48
2017-02-18T09:23:55.167Z,46.87
2017-02-18T09:25:04.932Z,46.48
2017-02-18T09:26:15.141Z,46.48
2017-02-18T09:27:25.331Z,46.67
2017-02-18T09:28:35.139Z,46.67
2017-02-18T09:29:44.907Z,46.67
2017-02-18T09:30:55.997Z,46.58
2017-02-18T09:32:06.186Z,46.39
2017-02-18T09:33:15.950Z,46.48
2017-02-18T09:34:25.461Z,46.48
2017-02-18T09:35:35.239Z,46.58
2017-02-18T09:36:45.439Z,46.58
2017-02-18T09:37:56.519Z,46.48
2017-02-18T09:39:06.307Z,46.48
2017-02-18T09:40:16.128Z,46.39
2017-02-18T09:41:26.335Z,46.48
2017-02-18T09:42:36.108Z,46.39
2017-02-18T09:43:46.802Z,46.77
2017-02-18T09:44:56.564Z,46.3
2017-02-18T09:46:05.938Z,46.77
2017-02-18T09:47:15.274Z,46.39
2017-02-18T09:48:25.046Z,46.67
2017-02-18T09:49:35.251Z,46.67
2017-02-18T09:50:45.464Z,46.67
2017-02-18T09:51:55.381Z,46.48
2017-02-18T09:53:04.689Z,46.67
2017-02-18T09:54:14.446Z,46.48
2017-02-18T09:55:23.782Z,46.58
2017-02-18T09:56:33.114Z,46.77
2017-02-18T09:57:42.907Z,46.67
2017-02-18T09:58:53.558Z,46.67
2017-02-18T10:00:02.878Z,46.58
2017-02-18T10:01:13.100Z,46.58
2017-02-18T10:02:22.402Z,46.67
2017-02-18T10:03:32.194Z,46.77
2017-02-18T10:04:42.387Z,46.96
2017-02-18T10:05:52.567Z,46.67
2017-02-18T10:07:02.798Z,46.39
2017-02-18T10:08:12.551Z,46.48
2017-02-18T10:09:22.361Z,46.58
2017-02-18T10:10:32.554Z,46.39
2017-02-18T10:11:42.327Z,46.3
2017-02-18T10:12:51.640Z,46.77
2017-02-18T10:14:01.394Z,46.96
2017-02-18T10:15:10.749Z,46.48
2017-02-18T10:16:20.527Z,46.77
2017-02-18T10:17:29.841Z,46.3
2017-02-18T10:18:39.170Z,46.48
2017-02-18T10:19:48.495Z,46.3
2017-02-18T10:20:57.883Z,46.48
2017-02-18T10:22:07.630Z,46.48
2017-02-18T10:23:17.389Z,46.39
2017-02-18T10:24:28.019Z,46.3
2017-02-18T10:25:38.221Z,46.3
2017-02-18T10:26:47.585Z,46.2
2017-02-18T10:27:57.327Z,46.2
2017-02-18T10:29:07.564Z,46.3
2017-02-18T10:30:17.324Z,45.91
2017-02-18T10:31:27.931Z,46.48
2017-02-18T10:32:37.295Z,46.39
2017-02-18T10:33:47.048Z,46.2
2017-02-18T10:34:56.821Z,46.58
2017-02-18T10:36:06.602Z,45.91
2017-02-18T10:37:16.356Z,46.01
2017-02-18T10:38:26.200Z,46.01
2017-02-18T10:39:35.959Z,45.91
2017-02-18T10:40:46.152Z,45.81
2017-02-18T10:41:56.342Z,46.01
2017-02-18T10:43:06.115Z,45.81
2017-02-18T10:44:15.900Z,45.81
2017-02-18T10:45:25.648Z,45.72
2017-02-18T10:46:36.287Z,45.81
2017-02-18T10:47:46.486Z,45.72
2017-02-18T10:48:56.676Z,45.72
2017-02-18T10:50:06.505Z,45.72
2017-02-18T10:51:16.695Z,45.72
2017-02-18T10:52:26.012Z,45.91
2017-02-18T10:53:35.788Z,45.72
2017-02-18T10:54:46.417Z,46.01
2017-02-18T10:55:57.091Z,45.34
2017-02-18T10:57:06.843Z,45.91
2017-02-18T10:58:17.065Z,45.62
2017-02-18T10:59:27.269Z,45.62
2017-02-18T11:00:37.037Z,45.81
2017-02-18T11:01:46.401Z,45.81
2017-02-18T11:02:56.611Z,45.65
2017-02-18T11:04:06.354Z,45.65
2017-02-18T11:05:16.152Z,45.43
2017-02-18T11:06:25.935Z,45.45
2017-02-18T11:07:35.886Z,45.45
2017-02-18T11:08:45.211Z,45.45
2017-02-18T11:09:54.976Z,45.45
2017-02-18T11:11:05.595Z,45.26
2017-02-18T11:12:15.793Z,45.45
2017-02-18T11:13:25.292Z,45.55
2017-02-18T11:14:34.615Z,45.26
2017-02-18T11:15:43.947Z,45.26
2017-02-18T11:16:54.140Z,45.17
2017-02-18T11:18:03.456Z,44.88
2017-02-18T11:19:13.702Z,44.88
2017-02-18T11:20:23.019Z,44.88
2017-02-18T11:21:33.217Z,45
2017-02-18T11:22:42.956Z,45.19
2017-02-18T11:23:53.141Z,45.09
2017-02-18T11:25:02.956Z,44.43
2017-02-18T11:26:12.256Z,44.43
2017-02-18T11:27:22.453Z,44.43
2017-02-18T11:28:32.227Z,44.23
2017-02-18T11:29:41.989Z,44.04
2017-02-18T11:30:52.273Z,44.04
2017-02-18T11:32:02.544Z,44.04
2017-02-18T11:33:11.857Z,44.62
2017-02-18T11:34:21.606Z,44.23
2017-02-18T11:35:30.953Z,44.23
2017-02-18T11:36:41.640Z,44.43
2017-02-18T11:37:51.404Z,44.33
2017-02-18T11:39:01.618Z,44.33
2017-02-18T11:40:10.935Z,44.33
2017-02-18T11:41:21.572Z,44.33
2017-02-18T11:42:31.820Z,44.43
2017-02-18T11:43:42.445Z,44.33
2017-02-18T11:44:52.211Z,44.13
2017-02-18T11:46:01.958Z,44.43
2017-02-18T11:47:11.714Z,44.23
2017-02-18T11:48:22.154Z,44.23
2017-02-18T11:49:31.948Z,44.52
2017-02-18T11:50:42.161Z,44.04
2017-02-18T11:51:52.355Z,44.04
2017-02-18T11:53:02.144Z,43.95
2017-02-18T11:54:11.961Z,44.04
2017-02-18T11:55:21.718Z,43.76
2017-02-18T11:56:31.948Z,43.77
2017-02-18T11:57:41.711Z,43.66
2017-02-18T11:58:54.386Z,43.66
2017-02-18T12:00:04.630Z,43.66
2017-02-18T12:01:14.403Z,43.85
2017-02-18T12:02:23.709Z,43.76
2017-02-18T12:03:33.906Z,43.76
2017-02-18T12:04:43.664Z,43.85
2017-02-18T12:05:53.944Z,43.85
2017-02-18T12:07:03.689Z,43.76
2017-02-18T12:08:13.446Z,43.76
2017-02-18T12:09:23.223Z,43.66
2017-02-18T12:10:32.979Z,43.66
2017-02-18T12:11:42.847Z,43.39
2017-02-18T12:12:53.080Z,43.76
2017-02-18T12:14:03.270Z,43.56
2017-02-18T12:15:13.029Z,43.85
2017-02-18T12:16:22.340Z,43.85
2017-02-18T12:17:31.729Z,43.37
2017-02-18T12:18:41.487Z,43.56
2017-02-18T12:19:51.251Z,43.85
2017-02-18T12:21:00.574Z,43.76
2017-02-18T12:22:09.912Z,43.18
2017-02-18T12:23:20.171Z,43.47
2017-02-18T12:24:29.483Z,43.56
2017-02-18T12:25:39.673Z,43.85
2017-02-18T12:26:48.990Z,43.56
2017-02-18T12:27:59.206Z,43.08
2017-02-18T12:29:09.453Z,43.08
2017-02-18T12:30:19.650Z,43.37
2017-02-18T12:31:29.421Z,43.56
2017-02-18T12:32:38.743Z,43.47
2017-02-18T12:33:49.368Z,43.66
2017-02-18T12:34:59.799Z,43.66
2017-02-18T12:36:09.982Z,43.66
2017-02-18T12:37:20.164Z,43.66
2017-02-18T12:38:29.931Z,43.56
2017-02-18T12:39:40.140Z,43.56
2017-02-18T12:40:49.934Z,43.85
2017-02-18T12:41:59.258Z,43.66
2017-02-18T12:43:09.463Z,43.37
2017-02-18T12:44:19.660Z,43.37
2017-02-18T12:45:28.982Z,43.37
2017-02-18T12:46:38.350Z,43.37
2017-02-18T12:47:47.651Z,43.56
2017-02-18T12:48:58.743Z,43.47
2017-02-18T12:50:08.508Z,43.47
2017-02-18T12:51:18.299Z,43.85
2017-02-18T12:52:27.667Z,43.66
2017-02-18T12:53:37.876Z,43.37
2017-02-18T12:54:47.635Z,43.66
2017-02-18T12:55:57.411Z,43.37
2017-02-18T12:57:07.205Z,43.37
2017-02-18T12:58:17.438Z,43.37
2017-02-18T12:59:27.244Z,43.66
2017-02-18T13:00:37.005Z,43.66
2017-02-18T13:01:46.766Z,43.47
2017-02-18T13:02:56.527Z,43.47
2017-02-18T13:04:05.916Z,43.47
2017-02-18T13:05:16.117Z,43.56
2017-02-18T13:06:26.306Z,43.56
2017-02-18T13:07:36.067Z,43.47
2017-02-18T13:08:45.806Z,43.47
2017-02-18T13:09:55.611Z,43.56
2017-02-18T13:11:05.830Z,43.56
2017-02-18T13:12:16.493Z,43.47
2017-02-18T13:13:26.258Z,43.47
2017-02-18T13:14:35.582Z,43.47
2017-02-18T13:15:46.424Z,43.56
2017-02-18T13:16:56.160Z,43.47
2017-02-18T13:18:05.511Z,43.56
2017-02-18T13:19:15.272Z,43.47
2017-02-18T13:20:25.473Z,43.66
2017-02-18T13:21:35.706Z,43.76
2017-02-18T13:22:45.464Z,43.56
2017-02-18T13:23:55.220Z,43.76
2017-02-18T13:25:05.408Z,43.56
2017-02-18T13:26:15.170Z,43.37
2017-02-18T13:27:25.430Z,43.76
2017-02-18T13:28:35.244Z,43.76
2017-02-18T13:29:45.003Z,43.76
2017-02-18T13:30:54.780Z,43.76
2017-02-18T13:32:04.547Z,44.04
2017-02-18T13:33:15.717Z,43.76
2017-02-18T13:34:25.900Z,43.95
2017-02-18T13:35:35.657Z,43.76
2017-02-18T13:36:45.418Z,43.76
2017-02-18T13:37:55.195Z,43.85
2017-02-18T13:39:05.429Z,43.85
2017-02-18T13:40:14.734Z,43.76
2017-02-18T13:41:24.039Z,43.85
2017-02-18T13:42:33.796Z,43.66
2017-02-18T13:43:44.859Z,43.66
2017-02-18T13:44:54.674Z,43.85
2017-02-18T13:46:04.862Z,43.85
2017-02-18T13:47:15.041Z,43.76
2017-02-18T13:48:25.234Z,43.85
2017-02-18T13:49:34.559Z,43.85
2017-02-18T13:50:43.919Z,43.56
2017-02-18T13:51:54.118Z,43.56
2017-02-18T13:53:03.875Z,43.56
2017-02-18T13:54:13.641Z,43.47
2017-02-18T13:55:23.857Z,43.56
2017-02-18T13:56:34.090Z,43.66
2017-02-18T13:57:44.290Z,43.56
2017-02-18T13:58:54.052Z,43.56
2017-02-18T14:00:04.693Z,43.66
2017-02-18T14:01:14.447Z,43.56
2017-02-18T14:02:24.260Z,43.56
2017-02-18T14:03:33.578Z,43.37
2017-02-18T14:04:42.893Z,43.37
2017-02-18T14:05:52.210Z,43.66
2017-02-18T14:07:02.411Z,43.47
2017-02-18T14:08:13.105Z,43.37
2017-02-18T14:09:22.880Z,43.85
2017-02-18T14:10:32.656Z,43.37
2017-02-18T14:11:42.400Z,43.56
2017-02-18T14:12:53.043Z,43.56
2017-02-18T14:14:02.856Z,43.56
2017-02-18T14:15:12.609Z,43.47
2017-02-18T14:16:21.936Z,43.47
2017-02-18T14:17:32.587Z,43.56
2017-02-18T14:18:42.765Z,43.56
2017-02-18T14:19:52.588Z,43.37
2017-02-18T14:21:03.213Z,43.56
2017-02-18T14:22:13.425Z,43.56
2017-02-18T14:23:24.070Z,43.18
2017-02-18T14:24:33.394Z,43.56
2017-02-18T14:25:43.631Z,43.08
2017-02-18T14:26:53.817Z,43.56
2017-02-18T14:28:03.574Z,43.66
2017-02-18T14:29:12.887Z,43.56
2017-02-18T14:30:22.204Z,43.56
2017-02-18T14:31:31.556Z,43.56
2017-02-18T14:32:41.318Z,43.56
2017-02-18T14:33:50.636Z,43.56
2017-02-18T14:35:00.821Z,43.56
2017-02-18T14:36:10.589Z,43.37
2017-02-18T14:37:21.284Z,43.47
2017-02-18T14:38:30.589Z,43.47
2017-02-18T14:39:39.914Z,43.56
2017-02-18T14:40:49.679Z,43.56
2017-02-18T14:41:59.881Z,43.56
2017-02-18T14:43:09.672Z,43.56
2017-02-18T14:44:19.439Z,43.56
2017-02-18T14:45:29.197Z,43.66
2017-02-18T14:46:38.957Z,43.76
2017-02-18T14:47:49.603Z,43.66
2017-02-18T14:48:59.410Z,43.56
2017-02-18T14:50:09.594Z,43.66
2017-02-18T14:51:19.345Z,43.56
2017-02-18T14:52:28.715Z,43.56
2017-02-18T14:53:38.464Z,43.85
2017-02-18T14:54:48.271Z,43.56
2017-02-18T14:55:58.979Z,43.56
2017-02-18T14:57:09.611Z,43.66
2017-02-18T14:58:18.937Z,43.85
2017-02-18T14:59:28.689Z,43.56
2017-02-18T15:00:38.518Z,43.37
2017-02-18T15:01:48.313Z,43.47